sensor_id;sensor_type;location;lat;lon;timestamp;pressure;altitude;pressure_sealevel;temperature;humidity
71678;BME280;59511;52.136;6.206;2023-10-09T00:00:50;102006.63;;;29.23;41.03
71678;BME280;59511;52.136;6.206;2023-10-09T00:03:19;102008.28;;;29.24;41.34
71678;BME280;59511;52.136;6.206;2023-10-09T00:05:48;102013.22;;;29.22;41.29
71678;BME280;59511;52.136;6.206;2023-10-09T00:08:18;102015.41;;;29.20;40.93
71678;BME280;59511;52.136;6.206;2023-10-09T00:10:57;102010.75;;;29.21;41.23
71678;BME280;59511;52.136;6.206;2023-10-09T00:13:25;102005.31;;;29.31;41.17
71678;BME280;59511;52.136;6.206;2023-10-09T00:15:57;102013.50;;;29.21;41.12
71678;BME280;59511;52.136;6.206;2023-10-09T00:18:26;102002.75;;;29.19;41.33
71678;BME280;59511;52.136;6.206;2023-10-09T00:20:58;102002.53;;;29.21;41.42
71678;BME280;59511;52.136;6.206;2023-10-09T00:23:36;102005.25;;;29.21;41.49
71678;BME280;59511;52.136;6.206;2023-10-09T00:26:02;102009.66;;;29.22;41.56
71678;BME280;59511;52.136;6.206;2023-10-09T00:28:40;102008.00;;;29.21;41.07
71678;BME280;59511;52.136;6.206;2023-10-09T00:31:08;102016.22;;;29.21;40.99
71678;BME280;59511;52.136;6.206;2023-10-09T00:33:43;102011.00;;;29.19;41.64
71678;BME280;59511;52.136;6.206;2023-10-09T00:36:08;102016.22;;;29.21;41.17
71678;BME280;59511;52.136;6.206;2023-10-09T00:38:35;102009.06;;;29.20;41.44
71678;BME280;59511;52.136;6.206;2023-10-09T00:41:01;102006.34;;;29.20;41.48
71678;BME280;59511;52.136;6.206;2023-10-09T00:43:36;101998.94;;;29.20;41.43
71678;BME280;59511;52.136;6.206;2023-10-09T00:46:03;101985.22;;;29.20;41.11
71678;BME280;59511;52.136;6.206;2023-10-09T00:48:30;101984.38;;;29.20;41.13
71678;BME280;59511;52.136;6.206;2023-10-09T00:50:57;101986.06;;;29.21;41.13
71678;BME280;59511;52.136;6.206;2023-10-09T00:53:26;101987.97;;;29.20;41.15
71678;BME280;59511;52.136;6.206;2023-10-09T00:56:01;101977.00;;;29.20;41.06
71678;BME280;59511;52.136;6.206;2023-10-09T00:58:45;101980.56;;;29.21;41.71
71678;BME280;59511;52.136;6.206;2023-10-09T01:01:12;101978.06;;;29.19;41.23
71678;BME280;59511;52.136;6.206;2023-10-09T01:03:42;101980.00;;;29.19;41.52
71678;BME280;59511;52.136;6.206;2023-10-09T01:06:09;101976.44;;;29.18;41.16
71678;BME280;59511;52.136;6.206;2023-10-09T01:08:38;101978.91;;;29.20;41.14
71678;BME280;59511;52.136;6.206;2023-10-09T01:13:40;101967.94;;;29.20;41.50
71678;BME280;59511;52.136;6.206;2023-10-09T01:16:11;101960.81;;;29.19;41.52
71678;BME280;59511;52.136;6.206;2023-10-09T01:18:41;101969.03;;;29.19;40.89
71678;BME280;59511;52.136;6.206;2023-10-09T01:21:06;101965.19;;;29.20;41.05
71678;BME280;59511;52.136;6.206;2023-10-09T01:23:32;101958.63;;;29.21;41.15
71678;BME280;59511;52.136;6.206;2023-10-09T01:25:57;101952.88;;;29.22;41.47
71678;BME280;59511;52.136;6.206;2023-10-09T01:28:23;101959.13;;;29.17;41.29
71678;BME280;59511;52.136;6.206;2023-10-09T01:30:49;101952.84;;;29.17;41.47
71678;BME280;59511;52.136;6.206;2023-10-09T01:33:16;101956.94;;;29.20;41.48
71678;BME280;59511;52.136;6.206;2023-10-09T01:35:49;101970.66;;;29.20;41.36
71678;BME280;59511;52.136;6.206;2023-10-09T01:38:16;101972.88;;;29.23;40.91
71678;BME280;59511;52.136;6.206;2023-10-09T01:40:41;101965.75;;;29.22;41.54
71678;BME280;59511;52.136;6.206;2023-10-09T01:43:08;101963.84;;;29.22;41.39
71678;BME280;59511;52.136;6.206;2023-10-09T01:45:36;101943.25;;;29.20;40.99
71678;BME280;59511;52.136;6.206;2023-10-09T01:48:11;101954.50;;;29.23;41.13
71678;BME280;59511;52.136;6.206;2023-10-09T01:50:37;101942.16;;;29.21;41.44
71678;BME280;59511;52.136;6.206;2023-10-09T01:53:07;101950.13;;;29.22;41.04
71678;BME280;59511;52.136;6.206;2023-10-09T01:55:33;101942.16;;;29.21;41.51
71678;BME280;59511;52.136;6.206;2023-10-09T01:58:08;101943.78;;;29.22;41.10
71678;BME280;59511;52.136;6.206;2023-10-09T02:00:42;101933.09;;;29.20;41.14
71678;BME280;59511;52.136;6.206;2023-10-09T02:03:09;101938.31;;;29.22;41.37
71678;BME280;59511;52.136;6.206;2023-10-09T02:05:37;101940.78;;;29.23;41.26
71678;BME280;59511;52.136;6.206;2023-10-09T02:08:03;101941.88;;;29.22;41.11
71678;BME280;59511;52.136;6.206;2023-10-09T02:10:29;101922.13;;;29.20;41.33
71678;BME280;59511;52.136;6.206;2023-10-09T02:13:05;101924.31;;;29.23;41.62
71678;BME280;59511;52.136;6.206;2023-10-09T02:15:42;101919.94;;;29.22;41.46
71678;BME280;59511;52.136;6.206;2023-10-09T02:18:13;101921.56;;;29.23;41.20
71678;BME280;59511;52.136;6.206;2023-10-09T02:23:31;101915.25;;;29.23;41.01
71678;BME280;59511;52.136;6.206;2023-10-09T02:26:19;101910.88;;;29.22;41.50
71678;BME280;59511;52.136;6.206;2023-10-09T02:28:57;101903.47;;;29.22;41.47
71678;BME280;59511;52.136;6.206;2023-10-09T02:31:29;101898.78;;;29.23;41.22
71678;BME280;59511;52.136;6.206;2023-10-09T02:34:17;101890.31;;;29.24;41.27
71678;BME280;59511;52.136;6.206;2023-10-09T02:36:42;101896.63;;;29.25;41.41
71678;BME280;59511;52.136;6.206;2023-10-09T02:39:09;101887.81;;;29.23;41.39
71678;BME280;59511;52.136;6.206;2023-10-09T02:41:53;101876.59;;;29.24;41.31
71678;BME280;59511;52.136;6.206;2023-10-09T02:44:23;101887.03;;;29.22;41.35
71678;BME280;59511;52.136;6.206;2023-10-09T02:46:50;101887.31;;;29.26;41.35
71678;BME280;59511;52.136;6.206;2023-10-09T02:49:16;101880.16;;;29.25;41.47
71678;BME280;59511;52.136;6.206;2023-10-09T02:51:41;101874.66;;;29.25;41.17
71678;BME280;59511;52.136;6.206;2023-10-09T02:54:07;101873.84;;;29.24;41.53
71678;BME280;59511;52.136;6.206;2023-10-09T02:56:50;101875.78;;;29.24;41.47
71678;BME280;59511;52.136;6.206;2023-10-09T02:59:31;101866.72;;;29.23;41.65
71678;BME280;59511;52.136;6.206;2023-10-09T03:01:56;101877.41;;;29.25;41.45
71678;BME280;59511;52.136;6.206;2023-10-09T03:04:27;101875.50;;;29.25;41.10
71678;BME280;59511;52.136;6.206;2023-10-09T03:06:56;101867.53;;;29.24;41.51
71678;BME280;59511;52.136;6.206;2023-10-09T03:09:23;101862.03;;;29.19;41.07
71678;BME280;59511;52.136;6.206;2023-10-09T03:12:01;101866.72;;;29.23;41.17
71678;BME280;59511;52.136;6.206;2023-10-09T03:14:28;101860.94;;;29.20;41.51
71678;BME280;59511;52.136;6.206;2023-10-09T03:16:54;101870.00;;;29.25;41.39
71678;BME280;59511;52.136;6.206;2023-10-09T03:19:21;101867.53;;;29.24;41.55
71678;BME280;59511;52.136;6.206;2023-10-09T03:21:47;101866.97;;;29.22;41.44
71678;BME280;59511;52.136;6.206;2023-10-09T03:24:12;101872.75;;;29.20;41.52
71678;BME280;59511;52.136;6.206;2023-10-09T03:26:38;101873.31;;;29.22;41.48
71678;BME280;59511;52.136;6.206;2023-10-09T03:29:04;101862.31;;;29.22;41.07
71678;BME280;59511;52.136;6.206;2023-10-09T03:31:36;101856.56;;;29.19;40.88
71678;BME280;59511;52.136;6.206;2023-10-09T03:34:02;101862.06;;;29.24;41.63
71678;BME280;59511;52.136;6.206;2023-10-09T03:36:28;101862.88;;;29.24;41.42
71678;BME280;59511;52.136;6.206;2023-10-09T03:38:56;101862.06;;;29.24;41.05
71678;BME280;59511;52.136;6.206;2023-10-09T03:41:26;101857.13;;;29.26;41.16
71678;BME280;59511;52.136;6.206;2023-10-09T03:43:54;101854.91;;;29.23;40.89
71678;BME280;59511;52.136;6.206;2023-10-09T03:46:21;101850.81;;;29.25;41.07
71678;BME280;59511;52.136;6.206;2023-10-09T03:48:48;101862.63;;;29.26;40.97
71678;BME280;59511;52.136;6.206;2023-10-09T03:51:14;101860.94;;;29.25;40.89
71678;BME280;59511;52.136;6.206;2023-10-09T03:53:51;101849.16;;;29.24;41.38
71678;BME280;59511;52.136;6.206;2023-10-09T03:56:20;101844.22;;;29.26;41.02
71678;BME280;59511;52.136;6.206;2023-10-09T03:58:50;101846.16;;;29.26;41.43
71678;BME280;59511;52.136;6.206;2023-10-09T04:01:17;101840.94;;;29.24;41.42
71678;BME280;59511;52.136;6.206;2023-10-09T04:03:54;101837.38;;;29.24;40.85
71678;BME280;59511;52.136;6.206;2023-10-09T04:06:23;101846.66;;;29.23;40.99
71678;BME280;59511;52.136;6.206;2023-10-09T04:08:54;101862.31;;;29.22;41.46
71678;BME280;59511;52.136;6.206;2023-10-09T04:11:20;101870.28;;;29.24;40.95
71678;BME280;59511;52.136;6.206;2023-10-09T04:13:48;101882.34;;;29.23;41.02
71678;BME280;59511;52.136;6.206;2023-10-09T04:16:25;101884.56;;;29.21;40.91
71678;BME280;59511;52.136;6.206;2023-10-09T04:19:02;101882.91;;;29.25;40.95
71678;BME280;59511;52.136;6.206;2023-10-09T04:21:37;101874.94;;;29.23;41.41
71678;BME280;59511;52.136;6.206;2023-10-09T04:24:07;101870.84;;;29.26;41.01
71678;BME280;59511;52.136;6.206;2023-10-09T04:26:36;101870.56;;;29.22;41.40
71678;BME280;59511;52.136;6.206;2023-10-09T04:29:03;101879.34;;;29.24;40.95
71678;BME280;59511;52.136;6.206;2023-10-09T04:31:29;101881.25;;;29.24;40.90
71678;BME280;59511;52.136;6.206;2023-10-09T04:34:00;101878.25;;;29.25;41.00
71678;BME280;59511;52.136;6.206;2023-10-09T04:36:56;101876.59;;;29.24;41.05
71678;BME280;59511;52.136;6.206;2023-10-09T04:39:47;101872.19;;;29.23;41.03
71678;BME280;59511;52.136;6.206;2023-10-09T04:42:26;101876.03;;;29.22;41.02
71678;BME280;59511;52.136;6.206;2023-10-09T04:45:02;101886.75;;;29.24;41.33
71678;BME280;59511;52.136;6.206;2023-10-09T04:47:28;101878.78;;;29.22;41.48
71678;BME280;59511;52.136;6.206;2023-10-09T04:50:13;101868.09;;;29.21;41.59
71678;BME280;59511;52.136;6.206;2023-10-09T04:52:38;101876.84;;;29.23;41.27
71678;BME280;59511;52.136;6.206;2023-10-09T04:55:04;101884.28;;;29.22;41.22
71678;BME280;59511;52.136;6.206;2023-10-09T04:57:35;101869.44;;;29.23;41.12
71678;BME280;59511;52.136;6.206;2023-10-09T05:00:24;101881.81;;;29.21;41.20
71678;BME280;59511;52.136;6.206;2023-10-09T05:02:54;101871.91;;;29.20;41.30
71678;BME280;59511;52.136;6.206;2023-10-09T05:05:27;101879.88;;;29.21;41.12
71678;BME280;59511;52.136;6.206;2023-10-09T05:08:14;101882.03;;;29.19;41.51
71678;BME280;59511;52.136;6.206;2023-10-09T05:10:53;101880.69;;;29.22;41.13
71678;BME280;59511;52.136;6.206;2023-10-09T05:13:35;101875.47;;;29.20;41.40
71678;BME280;59511;52.136;6.206;2023-10-09T05:16:04;101873.56;;;29.21;41.45
71678;BME280;59511;52.136;6.206;2023-10-09T05:18:30;101863.69;;;29.20;41.43
71678;BME280;59511;52.136;6.206;2023-10-09T05:21:03;101872.47;;;29.22;41.03
71678;BME280;59511;52.136;6.206;2023-10-09T05:23:51;101871.91;;;29.20;41.30
71678;BME280;59511;52.136;6.206;2023-10-09T05:26:55;101886.47;;;29.20;41.48
71678;BME280;59511;52.136;6.206;2023-10-09T05:29:37;101882.88;;;29.20;41.14
71678;BME280;59511;52.136;6.206;2023-10-09T05:32:14;101878.78;;;29.22;41.43
71678;BME280;59511;52.136;6.206;2023-10-09T05:34:45;101887.81;;;29.23;41.56
71678;BME280;59511;52.136;6.206;2023-10-09T05:37:40;101898.78;;;29.23;41.41
71678;BME280;59511;52.136;6.206;2023-10-09T05:40:09;101901.00;;;29.21;41.28
71678;BME280;59511;52.136;6.206;2023-10-09T05:42:41;101908.13;;;29.22;41.27
71678;BME280;59511;52.136;6.206;2023-10-09T05:45:16;101919.09;;;29.22;41.43
71678;BME280;59511;52.136;6.206;2023-10-09T05:50:31;101922.97;;;29.21;41.61
71678;BME280;59511;52.136;6.206;2023-10-09T05:52:57;101915.25;;;29.23;41.72
71678;BME280;59511;52.136;6.206;2023-10-09T05:55:32;101920.22;;;29.21;41.18
71678;BME280;59511;52.136;6.206;2023-10-09T05:58:14;101925.69;;;29.21;41.36
71678;BME280;59511;52.136;6.206;2023-10-09T06:01:05;101930.34;;;29.20;41.35
71678;BME280;59511;52.136;6.206;2023-10-09T06:03:51;101924.03;;;29.14;41.78
71678;BME280;59511;52.136;6.206;2023-10-09T06:06:34;101936.38;;;29.17;41.65
71678;BME280;59511;52.136;6.206;2023-10-09T06:09:08;101926.22;;;29.17;41.28
71678;BME280;59511;52.136;6.206;2023-10-09T06:11:45;101916.34;;;29.17;41.77
71678;BME280;59511;52.136;6.206;2023-10-09T06:14:18;101921.84;;;29.17;41.40
71678;BME280;59511;52.136;6.206;2023-10-09T06:16:57;101925.66;;;29.15;41.79
71678;BME280;59511;52.136;6.206;2023-10-09T06:19:23;101920.72;;;29.12;41.67
71678;BME280;59511;52.136;6.206;2023-10-09T06:22:00;101931.13;;;29.15;41.21
71678;BME280;59511;52.136;6.206;2023-10-09T06:24:30;101931.97;;;29.16;41.26
71678;BME280;59511;52.136;6.206;2023-10-09T06:27:16;101921.28;;;29.14;41.71
71678;BME280;59511;52.136;6.206;2023-10-09T06:29:58;101928.41;;;29.15;41.52
71678;BME280;59511;52.136;6.206;2023-10-09T06:32:42;101892.22;;;29.13;41.25
71678;BME280;59511;52.136;6.206;2023-10-09T06:35:37;101902.06;;;29.14;41.44
71678;BME280;59511;52.136;6.206;2023-10-09T06:38:04;101918.25;;;29.16;41.29
71678;BME280;59511;52.136;6.206;2023-10-09T06:40:48;101928.41;;;29.15;41.39
71678;BME280;59511;52.136;6.206;2023-10-09T06:43:31;101916.91;;;29.13;41.42
71678;BME280;59511;52.136;6.206;2023-10-09T06:46:02;101917.41;;;29.15;41.23
71678;BME280;59511;52.136;6.206;2023-10-09T06:48:46;101924.28;;;29.13;41.19
71678;BME280;59511;52.136;6.206;2023-10-09T06:51:21;101920.44;;;29.14;41.47
71678;BME280;59511;52.136;6.206;2023-10-09T06:53:53;101906.72;;;29.14;41.74
71678;BME280;59511;52.136;6.206;2023-10-09T06:56:29;101910.31;;;29.14;41.25
71678;BME280;59511;52.136;6.206;2023-10-09T06:58:58;101914.69;;;29.15;41.64
71678;BME280;59511;52.136;6.206;2023-10-09T07:01:24;101906.44;;;29.15;41.31
71678;BME280;59511;52.136;6.206;2023-10-09T07:03:53;101891.66;;;29.11;41.81
71678;BME280;59511;52.136;6.206;2023-10-09T07:06:20;101885.00;;;29.07;41.73
71678;BME280;59511;52.136;6.206;2023-10-09T07:11:32;101920.94;;;29.06;41.70
71678;BME280;59511;52.136;6.206;2023-10-09T07:14:07;101919.56;;;29.08;41.74
71678;BME280;59511;52.136;6.206;2023-10-09T07:16:33;101924.56;;;29.11;41.75
71678;BME280;59511;52.136;6.206;2023-10-09T07:19:22;101930.34;;;29.15;41.37
71678;BME280;59511;52.136;6.206;2023-10-09T07:22:11;101925.13;;;29.13;41.77
71678;BME280;59511;52.136;6.206;2023-10-09T07:27:19;101921.00;;;29.16;41.37
71678;BME280;59511;52.136;6.206;2023-10-09T07:30:05;101931.13;;;29.15;41.91
71678;BME280;59511;52.136;6.206;2023-10-09T07:32:53;101919.63;;;29.13;41.85
71678;BME280;59511;52.136;6.206;2023-10-09T07:35:22;101923.44;;;29.12;41.90
71678;BME280;59511;52.136;6.206;2023-10-09T07:38:12;101935.25;;;29.13;41.23
71678;BME280;59511;52.136;6.206;2023-10-09T07:40:40;101929.50;;;29.14;41.70
71678;BME280;59511;52.136;6.206;2023-10-09T07:43:38;101927.88;;;29.13;41.47
71678;BME280;59511;52.136;6.206;2023-10-09T07:46:12;101936.59;;;29.10;41.75
71678;BME280;59511;52.136;6.206;2023-10-09T07:49:02;101944.63;;;29.17;41.68
71678;BME280;59511;52.136;6.206;2023-10-09T07:51:35;101952.00;;;29.17;41.77
71678;BME280;59511;52.136;6.206;2023-10-09T07:54:01;101945.69;;;29.16;41.74
71678;BME280;59511;52.136;6.206;2023-10-09T07:56:37;101953.38;;;29.19;41.35
71678;BME280;59511;52.136;6.206;2023-10-09T07:59:15;101968.75;;;29.20;41.22
71678;BME280;59511;52.136;6.206;2023-10-09T08:01:48;101966.84;;;29.21;41.68
71678;BME280;59511;52.136;6.206;2023-10-09T08:04:25;101946.81;;;29.20;41.28
71678;BME280;59511;52.136;6.206;2023-10-09T08:07:03;101916.91;;;29.19;41.20
71678;BME280;59511;52.136;6.206;2023-10-09T08:09:35;101906.50;;;29.21;41.97
71678;BME280;59511;52.136;6.206;2023-10-09T08:12:11;101900.19;;;29.20;41.20
71678;BME280;59511;52.136;6.206;2023-10-09T08:14:56;101891.13;;;29.20;41.61
71678;BME280;59511;52.136;6.206;2023-10-09T08:17:37;101884.78;;;29.19;41.72
71678;BME280;59511;52.136;6.206;2023-10-09T08:20:03;101891.13;;;29.20;41.43
71678;BME280;59511;52.136;6.206;2023-10-09T08:22:38;101893.88;;;29.25;41.11
71678;BME280;59511;52.136;6.206;2023-10-09T08:25:08;101891.69;;;29.27;41.56
71678;BME280;59511;52.136;6.206;2023-10-09T08:27:48;101905.13;;;29.28;41.33
71678;BME280;59511;52.136;6.206;2023-10-09T08:30:20;101900.75;;;29.22;41.28
71678;BME280;59511;52.136;6.206;2023-10-09T08:32:51;101887.03;;;29.22;41.54
71678;BME280;59511;52.136;6.206;2023-10-09T08:35:30;101883.44;;;29.22;41.58
71678;BME280;59511;52.136;6.206;2023-10-09T08:37:57;101889.47;;;29.19;41.24
71678;BME280;59511;52.136;6.206;2023-10-09T08:40:34;101887.81;;;29.23;41.57
71678;BME280;59511;52.136;6.206;2023-10-09T08:43:12;101901.00;;;29.21;41.19
71678;BME280;59511;52.136;6.206;2023-10-09T08:45:41;101912.50;;;29.23;41.18
71678;BME280;59511;52.136;6.206;2023-10-09T08:48:11;101928.97;;;29.23;41.26
71678;BME280;59511;52.136;6.206;2023-10-09T08:50:46;101940.50;;;29.20;41.63
71678;BME280;59511;52.136;6.206;2023-10-09T08:53:13;101946.53;;;29.22;41.01
71678;BME280;59511;52.136;6.206;2023-10-09T08:55:40;101950.41;;;29.21;41.76
71678;BME280;59511;52.136;6.206;2023-10-09T08:58:07;101955.59;;;29.22;41.20
71678;BME280;59511;52.136;6.206;2023-10-09T09:00:52;101952.88;;;29.22;41.51
71678;BME280;59511;52.136;6.206;2023-10-09T09:03:21;101955.59;;;29.22;41.56
71678;BME280;59511;52.136;6.206;2023-10-09T09:05:58;101957.50;;;29.22;41.78
71678;BME280;59511;52.136;6.206;2023-10-09T09:08:27;101962.72;;;29.18;41.21
71678;BME280;59511;52.136;6.206;2023-10-09T09:11:04;101975.38;;;29.24;41.00
71678;BME280;59511;52.136;6.206;2023-10-09T09:16:31;101982.78;;;29.24;41.58
71678;BME280;59511;52.136;6.206;2023-10-09T09:19:01;101991.00;;;29.24;41.45
71678;BME280;59511;52.136;6.206;2023-10-09T09:21:34;101981.94;;;29.23;41.18
71678;BME280;59511;52.136;6.206;2023-10-09T09:24:13;101987.41;;;29.23;41.21
71678;BME280;59511;52.136;6.206;2023-10-09T09:26:49;101994.56;;;29.24;41.48
71678;BME280;59511;52.136;6.206;2023-10-09T09:29:46;101994.03;;;29.22;41.64
71678;BME280;59511;52.136;6.206;2023-10-09T09:32:27;102004.16;;;29.22;41.73
71678;BME280;59511;52.136;6.206;2023-10-09T09:35:01;101994.03;;;29.22;40.99
71678;BME280;59511;52.136;6.206;2023-10-09T09:37:31;101998.66;;;29.22;41.26
71678;BME280;59511;52.136;6.206;2023-10-09T09:40:17;101999.50;;;29.22;41.22
71678;BME280;59511;52.136;6.206;2023-10-09T09:42:56;101990.72;;;29.20;41.67
71678;BME280;59511;52.136;6.206;2023-10-09T09:45:22;101994.28;;;29.21;41.67
71678;BME280;59511;52.136;6.206;2023-10-09T09:47:50;101982.47;;;29.20;41.66
71678;BME280;59511;52.136;6.206;2023-10-09T09:50:20;101980.03;;;29.24;41.51
71678;BME280;59511;52.136;6.206;2023-10-09T09:52:54;101983.84;;;29.23;41.73
71678;BME280;59511;52.136;6.206;2023-10-09T09:55:19;101985.25;;;29.25;41.46
71678;BME280;59511;52.136;6.206;2023-10-09T09:57:58;101984.41;;;29.25;41.12
71678;BME280;59511;52.136;6.206;2023-10-09T10:00:29;101987.72;;;29.27;41.36
71678;BME280;59511;52.136;6.206;2023-10-09T10:03:11;101984.66;;;29.18;41.61
71678;BME280;59511;52.136;6.206;2023-10-09T10:05:40;101984.66;;;29.18;41.57
71678;BME280;59511;52.136;6.206;2023-10-09T10:08:08;101979.44;;;29.17;41.32
71678;BME280;59511;52.136;6.206;2023-10-09T10:10:40;101985.50;;;29.19;41.27
71678;BME280;59511;52.136;6.206;2023-10-09T10:16:07;101988.47;;;29.12;41.21
71678;BME280;59511;52.136;6.206;2023-10-09T10:21:35;102007.94;;;29.15;41.23
71678;BME280;59511;52.136;6.206;2023-10-09T10:32:54;101995.63;;;29.18;41.15
71678;BME280;59511;52.136;6.206;2023-10-09T10:35:21;101998.66;;;29.17;41.33
71678;BME280;59511;52.136;6.206;2023-10-09T10:38:30;102000.28;;;29.17;41.66
71678;BME280;59511;52.136;6.206;2023-10-09T10:43:37;102002.53;;;29.21;41.75
71678;BME280;59511;52.136;6.206;2023-10-09T10:46:18;102005.56;;;29.24;41.58
71678;BME280;59511;52.136;6.206;2023-10-09T10:49:00;102009.09;;;29.25;41.10
71678;BME280;59511;52.136;6.206;2023-10-09T10:51:40;102012.41;;;29.27;41.44
71678;BME280;59511;52.136;6.206;2023-10-09T10:54:07;102014.59;;;29.25;41.38
71678;BME280;59511;52.136;6.206;2023-10-09T10:56:52;102010.78;;;29.26;40.94
71678;BME280;59511;52.136;6.206;2023-10-09T10:59:20;102002.53;;;29.26;41.14
71678;BME280;59511;52.136;6.206;2023-10-09T11:01:51;101995.94;;;29.27;41.50
71678;BME280;59511;52.136;6.206;2023-10-09T11:04:27;101980.88;;;29.24;41.55
71678;BME280;59511;52.136;6.206;2023-10-09T11:07:05;101988.00;;;29.25;41.56
71678;BME280;59511;52.136;6.206;2023-10-09T11:09:51;101993.47;;;29.25;41.58
71678;BME280;59511;52.136;6.206;2023-10-09T11:12:26;101992.63;;;29.25;41.08
71678;BME280;59511;52.136;6.206;2023-10-09T11:15:05;101990.47;;;29.27;40.91
71678;BME280;59511;52.136;6.206;2023-10-09T11:17:37;101987.16;;;29.25;41.39
71678;BME280;59511;52.136;6.206;2023-10-09T11:20:05;101990.72;;;29.25;40.98
71678;BME280;59511;52.136;6.206;2023-10-09T11:22:52;101984.41;;;29.25;41.71
71678;BME280;59511;52.136;6.206;2023-10-09T11:25:41;101982.78;;;29.24;41.71
71678;BME280;59511;52.136;6.206;2023-10-09T11:28:21;101984.41;;;29.25;41.69
71678;BME280;59511;52.136;6.206;2023-10-09T11:31:15;101982.78;;;29.24;41.08
71678;BME280;59511;52.136;6.206;2023-10-09T11:33:50;101988.81;;;29.26;41.23
71678;BME280;59511;52.136;6.206;2023-10-09T11:36:20;101988.81;;;29.26;41.70
71678;BME280;59511;52.136;6.206;2023-10-09T11:38:58;101993.72;;;29.19;41.37
71678;BME280;59511;52.136;6.206;2023-10-09T11:41:43;101995.66;;;29.23;41.54
71678;BME280;59511;52.136;6.206;2023-10-09T11:44:10;101991.56;;;29.26;41.71
71678;BME280;59511;52.136;6.206;2023-10-09T11:47:00;101984.38;;;29.20;41.50
71678;BME280;59511;52.136;6.206;2023-10-09T11:49:51;102000.59;;;29.26;41.11
71678;BME280;59511;52.136;6.206;2023-10-09T11:52:29;102001.72;;;29.25;41.16
71678;BME280;59511;52.136;6.206;2023-10-09T11:55:01;101999.22;;;29.24;41.20
71678;BME280;59511;52.136;6.206;2023-10-09T11:57:28;101990.16;;;29.18;41.45
71678;BME280;59511;52.136;6.206;2023-10-09T12:00:02;101994.81;;;29.23;41.65
71678;BME280;59511;52.136;6.206;2023-10-09T12:02:36;102001.72;;;29.25;41.33
71678;BME280;59511;52.136;6.206;2023-10-09T12:05:09;101996.50;;;29.24;41.10
71678;BME280;59511;52.136;6.206;2023-10-09T12:07:43;101999.22;;;29.24;41.69
71678;BME280;59511;52.136;6.206;2023-10-09T12:10:09;102007.47;;;29.24;41.38
71678;BME280;59511;52.136;6.206;2023-10-09T12:12:35;101992.91;;;29.23;41.33
71678;BME280;59511;52.136;6.206;2023-10-09T12:15:01;101997.31;;;29.24;41.25
71678;BME280;59511;52.136;6.206;2023-10-09T12:17:30;101987.97;;;29.20;41.68
71678;BME280;59511;52.136;6.206;2023-10-09T12:19:55;101990.16;;;29.23;41.61
71678;BME280;59511;52.136;6.206;2023-10-09T12:22:22;101990.44;;;29.22;41.36
71678;BME280;59511;52.136;6.206;2023-10-09T12:24:52;101983.31;;;29.21;41.53
71678;BME280;59511;52.136;6.206;2023-10-09T12:27:18;101971.22;;;29.22;41.77
71678;BME280;59511;52.136;6.206;2023-10-09T12:29:45;101970.66;;;29.20;41.75
71678;BME280;59511;52.136;6.206;2023-10-09T12:32:11;101979.47;;;29.22;41.66
71678;BME280;59511;52.136;6.206;2023-10-09T12:34:37;101986.84;;;29.16;41.73
71678;BME280;59511;52.136;6.206;2023-10-09T12:37:04;101986.59;;;29.23;41.55
71678;BME280;59511;52.136;6.206;2023-10-09T12:39:29;101981.09;;;29.23;41.50
71678;BME280;59511;52.136;6.206;2023-10-09T12:42:01;101976.72;;;29.22;41.41
71678;BME280;59511;52.136;6.206;2023-10-09T12:44:33;101987.41;;;29.23;41.59
71678;BME280;59511;52.136;6.206;2023-10-09T12:47:07;101984.41;;;29.25;41.76
71678;BME280;59511;52.136;6.206;2023-10-09T12:49:32;101985.50;;;29.24;41.65
71678;BME280;59511;52.136;6.206;2023-10-09T12:51:58;101988.25;;;29.24;41.28
71678;BME280;59511;52.136;6.206;2023-10-09T12:54:27;101983.59;;;29.24;41.61
71678;BME280;59511;52.136;6.206;2023-10-09T12:56:56;101989.34;;;29.23;41.36
71678;BME280;59511;52.136;6.206;2023-10-09T12:59:23;101989.34;;;29.23;41.33
71678;BME280;59511;52.136;6.206;2023-10-09T13:01:49;101997.56;;;29.23;41.35
71678;BME280;59511;52.136;6.206;2023-10-09T13:04:18;101993.75;;;29.24;41.25
71678;BME280;59511;52.136;6.206;2023-10-09T13:06:47;101992.91;;;29.23;41.13
71678;BME280;59511;52.136;6.206;2023-10-09T13:09:16;101994.03;;;29.22;41.39
71678;BME280;59511;52.136;6.206;2023-10-09T13:11:50;101999.22;;;29.24;41.74
71678;BME280;59511;52.136;6.206;2023-10-09T13:14:16;102005.56;;;29.24;41.27
71678;BME280;59511;52.136;6.206;2023-10-09T13:16:47;102009.09;;;29.25;41.70
71678;BME280;59511;52.136;6.206;2023-10-09T13:19:15;102009.09;;;29.25;41.71
71678;BME280;59511;52.136;6.206;2023-10-09T13:21:43;102000.88;;;29.25;41.61
71678;BME280;59511;52.136;6.206;2023-10-09T13:24:09;102007.19;;;29.25;41.45
71678;BME280;59511;52.136;6.206;2023-10-09T13:26:53;102000.06;;;29.24;41.24
71678;BME280;59511;52.136;6.206;2023-10-09T13:29:23;101993.75;;;29.24;41.87
71678;BME280;59511;52.136;6.206;2023-10-09T13:31:49;101999.22;;;29.24;41.41
71678;BME280;59511;52.136;6.206;2023-10-09T13:34:16;101998.41;;;29.23;41.57
71678;BME280;59511;52.136;6.206;2023-10-09T13:36:42;102006.91;;;29.27;41.16
71678;BME280;59511;52.136;6.206;2023-10-09T13:39:21;101997.06;;;29.26;41.48
71678;BME280;59511;52.136;6.206;2023-10-09T13:41:54;101994.31;;;29.26;41.29
71678;BME280;59511;52.136;6.206;2023-10-09T13:44:27;101989.91;;;29.25;41.21
71678;BME280;59511;52.136;6.206;2023-10-09T13:46:57;102002.25;;;29.27;41.68
71678;BME280;59511;52.136;6.206;2023-10-09T13:49:23;102005.00;;;29.22;41.66
71678;BME280;59511;52.136;6.206;2023-10-09T13:51:49;102007.47;;;29.24;41.57
71678;BME280;59511;52.136;6.206;2023-10-09T13:54:16;101995.66;;;29.23;41.42